CFG1JW EDDH-EDDF
Flight info
| Callsign | CFG1JW |
|---|---|
| Flight time | N/A |
| Altitude | 30000 |
| Route | AMLUH2G/33 AMLUH M852 DENIX DCT RIMET/N0451F310 T157 KOKEB/N0394F230 T157 KERAX KERAX5A |
| Aircraft | A20N/M-SDE2E3FGHIRWXY/LB1 |
Departure
| Time | 2026-05-06 19:49 |
|---|---|
| Airport | Hamburg Helmut Schmidt Airport (EDDH) |
Arrival
| Time | N/A |
|---|---|
| Airport | Frankfurt Main Airport (EDDF) |
| Time | Latitude | Longitude | Altitude | Speed | Heading |
|---|---|---|---|---|---|
| 2026-05-06 19:08 | 53.62881 | 10.00233 | 51 ft | 0 kts | 122° |
| 2026-05-06 19:35 | 53.62882 | 10.00231 | 51 ft | 3 kts | 122° |
| 2026-05-06 19:35 | 53.62891 | 10.00207 | 49 ft | 2 kts | 123° |
| 2026-05-06 19:35 | 53.62900 | 10.00183 | 51 ft | 2 kts | 123° |
| 2026-05-06 19:36 | 53.62909 | 10.00159 | 50 ft | 2 kts | 121° |
| 2026-05-06 19:36 | 53.62920 | 10.00136 | 47 ft | 2 kts | 139° |
| 2026-05-06 19:36 | 53.62934 | 10.00120 | 48 ft | 2 kts | 153° |
| 2026-05-06 19:36 | 53.62949 | 10.00108 | 48 ft | 2 kts | 163° |
| 2026-05-06 19:37 | 53.62962 | 10.00106 | 46 ft | 0 kts | 203° |
| 2026-05-06 19:41 | 53.62958 | 10.00103 | 51 ft | 4 kts | 203° |
| 2026-05-06 19:41 | 53.62906 | 10.00056 | 51 ft | 1 kts | 206° |
| 2026-05-06 19:41 | 53.62890 | 10.00047 | 51 ft | 4 kts | 195° |
| 2026-05-06 19:42 | 53.62856 | 10.00025 | 50 ft | 6 kts | 217° |
| 2026-05-06 19:42 | 53.62849 | 10.00009 | 51 ft | 3 kts | 236° |
| 2026-05-06 19:42 | 53.62839 | 9.99959 | 52 ft | 5 kts | 255° |
| 2026-05-06 19:42 | 53.62838 | 9.99952 | 46 ft | 0 kts | 254° |
| 2026-05-06 19:44 | 53.62831 | 9.99922 | 50 ft | 8 kts | 247° |
| 2026-05-06 19:44 | 53.62816 | 9.99802 | 51 ft | 13 kts | 297° |
| 2026-05-06 19:44 | 53.62872 | 9.99736 | 52 ft | 0 kts | 333° |
| 2026-05-06 19:49 | 53.63045 | 9.99586 | 51 ft | 75 kts | 332° |
| 2026-05-06 19:49 | 53.63784 | 9.98953 | 49 ft | 157 kts | 333° |
| 2026-05-06 19:49 | 53.64848 | 9.97967 | 529 ft | 185 kts | 332° |
| 2026-05-06 19:49 | 53.65968 | 9.96929 | 1690 ft | 181 kts | 334° |
| 2026-05-06 19:50 | 53.67099 | 9.95906 | 2567 ft | 192 kts | 335° |
| 2026-05-06 19:50 | 53.68361 | 9.94895 | 3203 ft | 210 kts | 343° |
| 2026-05-06 19:50 | 53.69809 | 9.94475 | 4010 ft | 214 kts | 2° |
| 2026-05-06 19:50 | 53.71301 | 9.94531 | 4790 ft | 215 kts | 2° |
| 2026-05-06 19:51 | 53.72784 | 9.94829 | 5533 ft | 215 kts | 21° |
| 2026-05-06 19:51 | 53.74035 | 9.96198 | 6302 ft | 217 kts | 48° |
| 2026-05-06 19:51 | 53.74734 | 9.98429 | 7022 ft | 221 kts | 77° |
| 2026-05-06 19:51 | 53.74689 | 10.01048 | 7776 ft | 228 kts | 101° |
| 2026-05-06 19:52 | 53.74222 | 10.03609 | 8525 ft | 233 kts | 111° |
| 2026-05-06 19:52 | 53.73438 | 10.06072 | 9311 ft | 240 kts | 119° |
| 2026-05-06 19:52 | 53.72568 | 10.08589 | 9869 ft | 265 kts | 118° |
| 2026-05-06 19:52 | 53.71610 | 10.11431 | 9909 ft | 287 kts | 118° |
| 2026-05-06 19:53 | 53.70572 | 10.14537 | 9910 ft | 321 kts | 118° |
| 2026-05-06 19:53 | 53.69395 | 10.17816 | 9913 ft | 330 kts | 127° |
| 2026-05-06 19:53 | 53.67693 | 10.20420 | 10086 ft | 334 kts | 148° |
| 2026-05-06 19:53 | 53.65537 | 10.21879 | 10903 ft | 336 kts | 165° |
| 2026-05-06 19:54 | 53.63273 | 10.22905 | 11961 ft | 338 kts | 165° |
| 2026-05-06 19:54 | 53.61024 | 10.23952 | 12880 ft | 343 kts | 165° |
| 2026-05-06 19:54 | 53.58717 | 10.25028 | 13798 ft | 347 kts | 166° |
| 2026-05-06 19:54 | 53.56371 | 10.26115 | 14636 ft | 352 kts | 166° |
| 2026-05-06 19:55 | 53.53993 | 10.27209 | 15424 ft | 357 kts | 166° |
| 2026-05-06 19:55 | 53.51585 | 10.28311 | 16236 ft | 361 kts | 166° |
| 2026-05-06 19:55 | 53.49146 | 10.29425 | 17043 ft | 366 kts | 166° |
| 2026-05-06 19:55 | 53.46760 | 10.30514 | 17826 ft | 370 kts | 166° |
| 2026-05-06 19:56 | 53.44181 | 10.31688 | 18591 ft | 374 kts | 167° |
| 2026-05-06 19:56 | 53.41664 | 10.32831 | 19298 ft | 378 kts | 167° |
| 2026-05-06 19:56 | 53.39103 | 10.33986 | 19995 ft | 382 kts | 167° |
| 2026-05-06 19:56 | 53.36585 | 10.35117 | 20670 ft | 386 kts | 167° |
| 2026-05-06 19:57 | 53.33971 | 10.36289 | 21343 ft | 390 kts | 167° |
| 2026-05-06 19:57 | 53.31334 | 10.37471 | 22024 ft | 394 kts | 167° |
| 2026-05-06 19:57 | 53.28670 | 10.38664 | 22689 ft | 398 kts | 167° |
| 2026-05-06 19:57 | 53.25989 | 10.39863 | 23353 ft | 402 kts | 167° |
| 2026-05-06 19:58 | 53.23267 | 10.41078 | 23928 ft | 406 kts | 167° |
| 2026-05-06 19:58 | 53.20529 | 10.42300 | 24510 ft | 409 kts | 167° |
| 2026-05-06 19:58 | 53.17774 | 10.43527 | 25058 ft | 412 kts | 167° |
| 2026-05-06 19:58 | 53.15013 | 10.44639 | 25606 ft | 413 kts | 171° |
| 2026-05-06 19:59 | 53.12172 | 10.45237 | 26125 ft | 415 kts | 178° |
| 2026-05-06 19:59 | 53.09327 | 10.45265 | 26654 ft | 416 kts | 185° |
| 2026-05-06 19:59 | 53.06432 | 10.44860 | 27160 ft | 419 kts | 186° |
| 2026-05-06 19:59 | 53.03516 | 10.44432 | 27664 ft | 421 kts | 186° |
| 2026-05-06 20:00 | 53.00589 | 10.44016 | 28151 ft | 424 kts | 186° |
| 2026-05-06 20:00 | 52.97666 | 10.43609 | 28608 ft | 427 kts | 186° |
| 2026-05-06 20:00 | 52.94697 | 10.43202 | 29058 ft | 430 kts | 186° |
| 2026-05-06 20:00 | 52.91707 | 10.42793 | 29490 ft | 432 kts | 186° |
| 2026-05-06 20:01 | 52.88744 | 10.42389 | 29817 ft | 435 kts | 186° |
| 2026-05-06 20:01 | 52.85735 | 10.41980 | 29879 ft | 435 kts | 186° |
| 2026-05-06 20:01 | 52.79633 | 10.41152 | 29877 ft | 434 kts | 186° |
| 2026-05-06 20:02 | 52.73685 | 10.40347 | 29870 ft | 433 kts | 186° |
| 2026-05-06 20:02 | 52.67733 | 10.39542 | 29850 ft | 432 kts | 186° |
| 2026-05-06 20:03 | 52.61738 | 10.38734 | 29853 ft | 431 kts | 186° |
| 2026-05-06 20:03 | 52.55819 | 10.37938 | 29847 ft | 429 kts | 187° |
| 2026-05-06 20:04 | 52.49692 | 10.37117 | 29832 ft | 428 kts | 187° |
| 2026-05-06 20:04 | 52.43940 | 10.36348 | 29838 ft | 427 kts | 187° |